Time;durP1;ratioP1;P1;durP2;ratioP2;P2;SDS_P1;SDS_P2;PMS_P1;PMS_P2;Temp;Humidity;BMP_temperature;BMP_pressure;BME280_temperature;BME280_humidity;BME280_pressure;Samples;Min_cycle;Max_cycle;Signal;HPM_P1;HPM_P2
2021/01/15 00:01:17;;;;;;;27.90;12.20;;;;;;;4.94;81.18;101819.53;4438809;32;20084;-76
2021/01/15 00:03:42;;;;;;;32.50;13.62;;;;;;;4.95;81.20;101815.59;4441301;32;20099;-77
2021/01/15 00:06:08;;;;;;;26.92;11.82;;;;;;;4.97;81.18;101818.78;4441750;32;20444;-73
2021/01/15 00:08:39;;;;;;;31.70;13.77;;;;;;;4.97;81.08;101815.22;4438824;32;20089;-75
2021/01/15 00:11:06;;;;;;;28.87;12.85;;;;;;;5.02;81.17;101821.25;4437603;32;20108;-76
2021/01/15 00:13:32;;;;;;;31.60;13.75;;;;;;;4.95;80.20;101815.59;4437346;32;20147;-75
2021/01/15 00:15:58;;;;;;;31.45;13.80;;;;;;;5.00;80.80;101818.03;4440706;32;20438;-75
2021/01/15 00:18:23;;;;;;;31.60;12.55;;;;;;;5.02;80.91;101820.44;4438453;32;20026;-75
2021/01/15 00:20:49;;;;;;;33.28;13.05;;;;;;;4.85;80.44;101824.56;4435420;32;21142;-76
2021/01/15 00:23:16;;;;;;;28.60;11.65;;;;;;;4.91;81.38;101828.66;4438115;32;20132;-75
2021/01/15 00:25:44;;;;;;;33.70;13.05;;;;;;;4.95;80.81;101825.94;4442747;32;20117;-77
2021/01/15 00:28:10;;;;;;;33.88;12.52;;;;;;;4.98;81.02;101830.75;4442214;32;20029;-76
2021/01/15 00:30:36;;;;;;;32.63;12.73;;;;;;;5.04;81.35;101829.25;4444038;32;20041;-77
2021/01/15 00:33:02;;;;;;;29.10;12.43;;;;;;;5.15;80.49;101836.59;4433638;32;20076;-77
2021/01/15 00:35:28;;;;;;;33.38;13.25;;;;;;;5.22;80.17;101833.13;4425789;32;20045;-75
2021/01/15 00:37:53;;;;;;;33.50;13.50;;;;;;;5.19;79.19;101836.66;4430110;32;20428;-76
2021/01/15 00:40:19;;;;;;;39.67;14.15;;;;;;;5.23;79.34;101837.53;4434708;32;20381;-76
2021/01/15 00:42:45;;;;;;;33.85;13.85;;;;;;;5.28;79.79;101838.00;4439593;32;20034;-75
2021/01/15 00:45:16;;;;;;;32.90;14.32;;;;;;;5.26;79.16;101831.19;4436673;32;20139;-75
2021/01/15 00:47:44;;;;;;;28.62;11.75;;;;;;;5.26;79.56;101834.78;4442730;32;20065;-75
2021/01/15 00:50:12;;;;;;;28.45;11.65;;;;;;;5.24;79.61;101841.91;4434612;32;20022;-75
2021/01/15 00:52:37;;;;;;;27.77;11.85;;;;;;;5.17;79.32;101837.03;4431563;32;20112;-75
2021/01/15 00:55:05;;;;;;;31.58;12.27;;;;;;;5.09;79.48;101831.75;4434757;32;20338;-75
2021/01/15 00:57:36;;;;;;;27.37;13.00;;;;;;;5.00;79.29;101834.78;4430946;32;20038;-75
2021/01/15 01:00:03;;;;;;;30.73;11.70;;;;;;;4.93;79.90;101825.47;4435205;32;20083;-76
2021/01/15 01:02:28;;;;;;;25.77;11.93;;;;;;;4.77;79.63;101830.41;4441165;32;20037;-76
2021/01/15 01:04:54;;;;;;;28.98;10.90;;;;;;;4.65;80.56;101828.62;4429585;32;20032;-75
2021/01/15 01:07:19;;;;;;;32.95;13.82;;;;;;;4.54;81.11;101818.47;4426850;32;20041;-76
2021/01/15 01:09:45;;;;;;;32.55;13.15;;;;;;;4.53;81.12;101839.12;4429793;32;20101;-75
2021/01/15 01:12:11;;;;;;;33.00;13.20;;;;;;;4.53;81.27;101844.72;4425581;32;20042;-75
2021/01/15 01:14:37;;;;;;;32.50;12.55;;;;;;;4.51;81.36;101833.94;4428095;32;20408;-76
2021/01/15 01:17:03;;;;;;;31.52;12.77;;;;;;;4.52;81.36;101843.94;4427608;32;20049;-74
2021/01/15 01:19:28;;;;;;;32.65;14.30;;;;;;;4.55;81.89;101843.19;4422537;32;20030;-74
2021/01/15 01:21:54;;;;;;;28.00;12.37;;;;;;;4.45;81.18;101852.12;4429251;32;20434;-74
2021/01/15 01:24:19;;;;;;;36.35;12.80;;;;;;;4.33;81.69;101846.75;4427471;32;20159;-74
2021/01/15 01:26:45;;;;;;;28.65;12.05;;;;;;;4.36;81.86;101853.56;4421456;32;20056;-75
2021/01/15 01:29:11;;;;;;;23.58;10.98;;;;;;;4.23;81.74;101843.78;4425399;32;20389;-75
2021/01/15 01:31:36;;;;;;;30.75;12.10;;;;;;;4.17;82.00;101846.03;4425135;32;20477;-75
2021/01/15 01:34:02;;;;;;;23.48;11.45;;;;;;;4.14;81.96;101857.91;4427291;32;20069;-76
2021/01/15 01:36:28;;;;;;;23.38;10.75;;;;;;;4.09;82.18;101850.66;4425355;32;20034;-75
2021/01/15 01:38:54;;;;;;;26.80;11.82;;;;;;;4.02;81.84;101841.38;4428500;32;20088;-74
2021/01/15 01:41:19;;;;;;;31.73;12.32;;;;;;;4.01;82.33;101848.91;4426759;32;20038;-75
2021/01/15 01:43:45;;;;;;;25.05;12.02;;;;;;;3.98;82.42;101843.25;4428925;32;20146;-75
2021/01/15 01:46:11;;;;;;;26.17;12.02;;;;;;;3.91;82.25;101848.69;4426609;32;20023;-76
2021/01/15 01:48:39;;;;;;;26.80;12.43;;;;;;;3.83;82.42;101852.50;4427933;32;20093;-74
2021/01/15 01:51:05;;;;;;;29.08;11.80;;;;;;;3.84;82.55;101848.56;4417764;32;20434;-73
2021/01/15 01:53:32;;;;;;;27.05;12.20;;;;;;;3.81;82.54;101858.44;4423842;32;20068;-74
2021/01/15 01:56:01;;;;;;;36.50;11.93;;;;;;;3.82;82.56;101853.69;4429118;32;20084;-74
2021/01/15 01:58:27;;;;;;;32.17;12.52;;;;;;;3.70;82.37;101856.59;4430357;32;20108;-74
2021/01/15 02:00:59;;;;;;;31.40;12.27;;;;;;;3.57;82.49;101864.28;4424116;32;20019;-74
2021/01/15 02:03:25;;;;;;;33.28;12.70;;;;;;;3.62;83.27;101869.56;4421358;32;20057;-75
2021/01/15 02:05:51;;;;;;;30.27;12.07;;;;;;;3.59;83.19;101873.06;4426358;32;20415;-74
2021/01/15 02:08:17;;;;;;;31.08;12.65;;;;;;;3.57;83.65;101875.44;4424357;32;20056;-73
2021/01/15 02:10:51;;;;;;;27.52;12.10;;;;;;;3.61;83.55;101869.91;4430511;32;20461;-74
2021/01/15 02:16:12;;;;;;;27.87;12.10;;;;;;;4.04;81.97;101883.56;3984451;32;15023901;-75
2021/01/15 02:18:45;;;;;;;27.60;12.07;;;;;;;4.04;81.97;101883.56;4436912;32;20025;-74
2021/01/15 02:23:49;;;;;;;33.30;12.27;;;;;;;3.89;80.93;101884.44;3991703;32;15023862;-72
2021/01/15 02:35:14;;;;;;;30.42;11.15;;;;;;;3.44;81.86;101889.81;3981686;32;15025945;-72
2021/01/15 02:40:39;;;;;;;26.27;11.85;;;;;;;3.35;81.98;101897.56;3988751;32;15026132;-76
2021/01/15 02:43:06;;;;;;;24.63;10.80;;;;;;;3.24;82.26;101900.09;4446303;32;20123;-73
2021/01/15 02:45:34;;;;;;;22.77;10.63;;;;;;;3.15;81.72;101895.88;4445789;32;20097;-71
2021/01/15 02:48:03;;;;;;;24.98;10.95;;;;;;;3.09;81.93;101891.75;4446742;32;20064;-73
2021/01/15 02:50:29;;;;;;;26.58;11.07;;;;;;;3.07;82.42;101891.31;4444468;32;20059;-73
2021/01/15 02:52:55;;;;;;;22.50;11.35;;;;;;;3.00;82.39;101905.84;4442164;32;20052;-74
2021/01/15 02:55:21;;;;;;;29.42;11.93;;;;;;;3.01;82.91;101906.66;4445670;32;20068;-71
2021/01/15 02:57:46;;;;;;;26.12;11.15;;;;;;;3.00;83.26;101908.63;4444034;32;20431;-74
2021/01/15 03:00:16;;;;;;;29.00;11.07;;;;;;;2.98;82.87;101919.28;4445254;32;20117;-71
2021/01/15 03:05:37;;;;;;;29.37;12.35;;;;;;;3.08;83.45;101929.06;4006109;31;15016369;-72
2021/01/15 03:08:05;;;;;;;22.98;11.02;;;;;;;3.02;83.42;101917.44;4474427;32;20044;-71
2021/01/15 03:10:32;;;;;;;32.35;12.63;;;;;;;3.02;83.41;101919.38;4473685;32;20037;-73
2021/01/15 03:13:00;;;;;;;26.35;10.82;;;;;;;2.98;83.43;101918.50;4470416;32;20029;-71
2021/01/15 03:15:26;;;;;;;22.80;10.45;;;;;;;3.03;83.40;101926.56;4471041;32;20021;-74
2021/01/15 03:17:53;;;;;;;24.37;10.73;;;;;;;3.02;83.30;101922.16;4465660;32;20041;-74
2021/01/15 03:20:21;;;;;;;20.12;8.60;;;;;;;2.96;82.74;101918.84;4469568;32;20021;-73
2021/01/15 03:22:48;;;;;;;16.12;7.75;;;;;;;2.95;83.15;101933.12;4475168;32;20059;-75
2021/01/15 03:25:15;;;;;;;19.67;8.43;;;;;;;2.87;83.01;101934.91;4469728;32;20055;-74
2021/01/15 03:30:19;;;;;;;20.17;7.75;;;;;;;2.98;83.66;101941.53;3996860;32;15023011;-72
2021/01/15 03:32:50;;;;;;;19.27;8.30;;;;;;;2.94;83.63;101945.37;4443129;32;20160;-74
2021/01/15 03:35:25;;;;;;;19.55;7.65;;;;;;;2.54;83.12;101894.72;4431341;32;20103;-74
2021/01/15 03:43:16;;;;;;;21.42;9.10;;;;;;;3.77;82.40;101971.72;4012551;31;15019151;-71
2021/01/15 03:45:43;;;;;;;17.80;8.90;;;;;;;3.77;82.40;101971.72;4464611;32;20073;-73
2021/01/15 03:48:09;;;;;;;18.60;8.93;;;;;;;3.43;83.29;101975.28;4476642;32;20024;-73
2021/01/15 03:50:36;;;;;;;21.02;8.63;;;;;;;3.51;83.07;101979.03;4473365;32;20072;-74
2021/01/15 03:53:01;;;;;;;20.77;8.80;;;;;;;3.60;83.35;101980.47;4470550;32;20068;-73
2021/01/15 03:55:27;;;;;;;19.67;8.45;;;;;;;3.68;83.21;101975.84;4473739;32;20036;-73
2021/01/15 03:57:53;;;;;;;16.95;8.77;;;;;;;3.77;82.98;101977.28;4471461;32;20067;-73
2021/01/15 04:00:19;;;;;;;18.42;9.13;;;;;;;3.86;82.70;101985.44;4471166;32;20077;-72
2021/01/15 04:02:44;;;;;;;17.77;8.00;;;;;;;3.94;82.24;101979.69;4470905;32;20160;-74
2021/01/15 04:05:11;;;;;;;16.23;8.75;;;;;;;3.96;81.96;101982.09;4468274;32;20059;-74
2021/01/15 04:07:37;;;;;;;16.52;8.13;;;;;;;4.01;81.82;101979.81;4465672;32;20036;-72
2021/01/15 04:10:05;;;;;;;15.90;7.68;;;;;;;4.02;81.53;101989.78;4469953;32;20083;-75
2021/01/15 04:12:31;;;;;;;16.15;8.50;;;;;;;3.97;81.06;101995.66;4473882;32;21739;-72
2021/01/15 04:14:56;;;;;;;18.37;8.32;;;;;;;3.98;80.65;101990.88;4471307;32;20032;-75
2021/01/15 04:17:23;;;;;;;19.92;8.45;;;;;;;4.09;81.20;102000.28;4477242;32;20073;-73
2021/01/15 04:19:49;;;;;;;17.10;7.70;;;;;;;4.18;81.17;101993.31;4474634;32;20073;-73
2021/01/15 04:22:14;;;;;;;13.75;7.55;;;;;;;4.19;80.30;101994.12;4470127;32;20066;-75
2021/01/15 04:24:40;;;;;;;16.33;8.05;;;;;;;4.14;79.96;101995.22;4470032;32;20032;-73
2021/01/15 04:27:06;;;;;;;21.60;8.65;;;;;;;4.17;79.81;101999.25;4471599;32;20442;-74
2021/01/15 04:29:32;;;;;;;13.23;7.50;;;;;;;4.22;80.10;101998.16;4471428;32;20030;-72
2021/01/15 04:31:58;;;;;;;15.38;7.68;;;;;;;4.22;79.22;102004.56;4466438;32;20051;-73
2021/01/15 04:34:24;;;;;;;15.60;8.10;;;;;;;4.31;79.81;102005.16;4463974;32;20025;-73
2021/01/15 04:36:49;;;;;;;18.35;8.18;;;;;;;4.27;79.53;102009.03;4452538;32;20488;-73
2021/01/15 04:39:15;;;;;;;16.73;7.05;;;;;;;4.37;80.05;102011.22;4448266;32;20435;-73
2021/01/15 04:41:43;;;;;;;13.43;6.90;;;;;;;4.40;79.91;102014.09;4453497;32;20493;-74
2021/01/15 04:44:09;;;;;;;18.92;8.80;;;;;;;4.48;79.94;102017.84;4460534;32;20087;-75
2021/01/15 04:46:39;;;;;;;20.80;9.73;;;;;;;4.40;80.36;102011.31;4450898;32;20105;-75
2021/01/15 04:49:09;;;;;;;26.08;10.32;;;;;;;4.42;80.58;102017.31;4453671;32;20068;-72
2021/01/15 04:51:36;;;;;;;22.33;9.45;;;;;;;4.39;79.91;102015.28;4468111;32;20463;-73
2021/01/15 04:54:09;;;;;;;21.65;9.68;;;;;;;4.40;80.60;102022.47;4443796;32;20076;-73
2021/01/15 04:56:51;;;;;;;24.15;10.60;;;;;;;4.45;80.63;102021.38;4440674;32;20030;-74
2021/01/15 04:59:18;;;;;;;26.45;11.18;;;;;;;4.45;80.36;102019.38;4436928;32;20061;-75
2021/01/15 05:01:45;;;;;;;23.95;9.63;;;;;;;4.46;80.40;102017.41;4447910;32;20094;-74
2021/01/15 05:04:14;;;;;;;18.95;7.12;;;;;;;4.45;80.18;102024.94;4452876;32;20029;-74
2021/01/15 05:09:24;;;;;;;24.98;9.02;;;;;;;4.75;79.42;102025.19;3992221;32;15026326;-75
2021/01/15 05:11:51;;;;;;;29.52;9.65;;;;;;;4.75;79.42;102025.19;4446463;32;20040;-76
2021/01/15 05:14:19;;;;;;;27.98;10.07;;;;;;;4.17;79.29;102024.34;4438369;32;20511;-73
2021/01/15 05:16:47;;;;;;;24.12;8.68;;;;;;;4.05;80.12;102028.06;4442094;32;20063;-76
2021/01/15 05:19:14;;;;;;;17.87;8.00;;;;;;;3.99;80.03;102034.28;4444730;32;20069;-75
2021/01/15 05:21:41;;;;;;;15.38;7.25;;;;;;;4.06;80.77;102045.59;4445452;32;20059;-75
2021/01/15 05:24:08;;;;;;;19.48;8.23;;;;;;;4.06;80.52;102043.59;4447584;32;20103;-77
2021/01/15 05:26:36;;;;;;;21.92;8.68;;;;;;;4.06;80.28;102045.59;4440455;32;20100;-75
2021/01/15 05:29:05;;;;;;;15.40;7.20;;;;;;;4.05;80.23;102046.72;4443090;32;20112;-75
2021/01/15 05:31:55;;;;;;;17.25;7.12;;;;;;;4.05;79.92;102041.97;4444262;32;20079;-75
2021/01/15 05:34:23;;;;;;;21.30;7.60;;;;;;;4.08;80.03;102041.25;4436546;32;20049;-75
2021/01/15 05:36:49;;;;;;;16.70;6.78;;;;;;;4.09;79.70;102042.06;4429969;32;20145;-75
2021/01/15 05:42:02;;;;;;;18.45;8.20;;;;;;;4.44;78.12;102051.22;3988511;32;15023849;-76
2021/01/15 05:44:30;;;;;;;20.55;7.40;;;;;;;4.44;78.12;102051.22;4443844;32;20025;-75
2021/01/15 05:46:58;;;;;;;25.80;8.45;;;;;;;3.91;79.27;102035.28;4445349;32;20079;-76
2021/01/15 05:49:24;;;;;;;18.62;8.07;;;;;;;3.70;79.02;102043.13;4441886;32;20033;-74
2021/01/15 05:51:50;;;;;;;21.48;8.85;;;;;;;3.65;79.52;102043.41;4445582;32;20478;-75
2021/01/15 05:54:32;;;;;;;20.62;8.45;;;;;;;3.60;79.69;102049.25;4447694;32;20085;-74
2021/01/15 05:57:00;;;;;;;21.27;8.30;;;;;;;3.57;79.91;102056.34;4443771;32;20104;-74
2021/01/15 05:59:27;;;;;;;19.05;8.13;;;;;;;3.54;80.14;102057.06;4445983;32;20121;-75
2021/01/15 06:04:38;;;;;;;21.42;9.63;;;;;;;3.81;78.85;102067.25;3996481;32;15022885;-75
2021/01/15 06:07:25;;;;;;;25.92;9.23;;;;;;;3.81;78.85;102067.25;4447253;32;20053;-74
2021/01/15 06:10:00;;;;;;;23.75;9.70;;;;;;;3.41;81.01;102063.06;4442704;32;20088;-73
2021/01/15 06:12:25;;;;;;;30.20;10.15;;;;;;;3.43;81.00;102064.31;4445219;32;20034;-76
2021/01/15 06:14:57;;;;;;;20.65;8.70;;;;;;;3.46;80.85;102063.59;4445832;32;20517;-75
2021/01/15 06:17:25;;;;;;;24.55;9.45;;;;;;;3.51;80.87;102068.09;4444477;32;20042;-74
2021/01/15 06:27:46;;;;;;;27.17;10.27;;;;;;;3.71;80.09;102069.78;3987891;32;15024120;-74
2021/01/15 06:32:49;;;;;;;24.83;9.80;;;;;;;3.74;79.08;102063.50;3961384;32;15723553;-74
2021/01/15 06:38:16;;;;;;;25.20;10.30;;;;;;;3.42;80.48;102068.28;3991394;32;15026238;-73
2021/01/15 06:43:33;;;;;;;35.70;10.52;;;;;;;3.43;80.19;102055.97;3987948;32;15023236;-75
2021/01/15 06:46:01;;;;;;;48.97;11.60;;;;;;;3.30;79.87;102056.41;4439969;32;20051;-75
2021/01/15 06:51:06;;;;;;;46.63;11.27;;;;;;;3.69;79.67;102077.69;3962575;32;15724422;-74
2021/01/15 06:53:33;;;;;;;135.00;12.20;;;;;;;3.69;79.67;102077.69;4435357;32;20021;-76
2021/01/15 06:56:02;;;;;;;180.65;15.48;;;;;;;3.19;80.58;102072.81;4434546;32;20053;-77
2021/01/15 06:58:30;;;;;;;65.47;12.27;;;;;;;3.08;80.90;102082.84;4429977;32;20042;-74
2021/01/15 07:01:24;;;;;;;70.82;13.20;;;;;;;3.19;81.18;102075.59;4433892;32;20317;-74
2021/01/15 07:04:28;;;;;;;148.45;13.15;;;;;;;3.26;81.72;102075.81;4432517;32;20063;-74
2021/01/15 07:09:37;;;;;;;142.87;12.88;;;;;;;3.48;79.35;102077.97;3987646;32;15024780;-75
2021/01/15 07:12:07;;;;;;;30.40;6.18;;;;;;;3.48;79.35;102077.97;4423542;32;20449;-74
2021/01/15 07:14:45;;;;;;;49.92;7.03;;;;;;;3.05;80.45;102080.78;4446333;32;20030;-74
2021/01/15 07:17:15;;;;;;;105.93;9.02;;;;;;;2.95;81.12;102074.94;4441974;32;20433;-75
2021/01/15 07:19:44;;;;;;;104.15;10.25;;;;;;;2.70;80.26;102082.53;4437205;32;20573;-75
2021/01/15 07:22:12;;;;;;;98.10;9.43;;;;;;;2.59;81.34;102083.41;4435036;32;20092;-74
2021/01/15 07:24:40;;;;;;;85.53;9.02;;;;;;;2.46;81.74;102081.81;4424460;32;20069;-74
2021/01/15 07:27:08;;;;;;;106.72;8.77;;;;;;;2.43;82.10;102094.44;4438105;32;20078;-76
2021/01/15 07:29:39;;;;;;;69.87;7.93;;;;;;;2.36;82.49;102105.31;4434361;32;20073;-74
2021/01/15 07:32:09;;;;;;;84.07;9.05;;;;;;;2.25;82.25;102104.22;4442791;32;20369;-75
2021/01/15 07:34:43;;;;;;;53.30;7.45;;;;;;;2.22;82.52;102113.22;4426899;32;20070;-75
2021/01/15 07:37:27;;;;;;;32.30;6.87;;;;;;;2.25;82.84;102114.50;4426732;32;20038;-74
2021/01/15 07:40:06;;;;;;;18.58;6.00;;;;;;;2.32;81.89;102118.31;4427073;32;20069;-75
2021/01/15 07:58:26;;;;;;;16.73;6.30;;;;;;;2.34;79.79;102149.34;3986432;32;15029812;-74
2021/01/15 08:00:52;;;;;;;17.30;5.97;;;;;;;2.34;79.79;102149.34;4435550;32;20112;-74
2021/01/15 08:03:18;;;;;;;17.50;7.65;;;;;;;1.88;80.89;102136.72;4437226;32;20021;-73
2021/01/15 08:05:45;;;;;;;17.05;6.85;;;;;;;1.85;80.63;102139.38;4436388;32;20029;-74
2021/01/15 08:08:19;;;;;;;16.98;6.22;;;;;;;1.79;80.79;102138.00;4439860;32;20387;-73
2021/01/15 08:10:48;;;;;;;18.87;7.18;;;;;;;1.79;80.90;102136.03;4442211;32;20476;-74
2021/01/15 08:13:23;;;;;;;24.12;7.57;;;;;;;1.68;80.20;102132.09;4436927;32;20061;-74
2021/01/15 08:15:49;;;;;;;;;;;;;;;1.87;81.43;102137.06;4438807;32;20034;-74
2021/01/15 08:18:15;;;;;;;17.55;7.60;;;;;;;1.62;80.69;102143.75;4435296;32;20025;-74
2021/01/15 08:20:46;;;;;;;17.65;7.55;;;;;;;1.69;81.75;102146.78;4438964;32;20014;-74
2021/01/15 08:23:21;;;;;;;19.10;7.50;;;;;;;1.76;82.13;102141.47;4435658;32;20414;-73
2021/01/15 08:25:51;;;;;;;18.33;6.68;;;;;;;1.77;82.34;102141.13;4443514;32;20092;-74
2021/01/15 08:28:17;;;;;;;19.90;7.43;;;;;;;1.76;81.65;102147.84;4433872;32;20085;-75
2021/01/15 08:33:35;;;;;;;19.08;7.10;;;;;;;2.12;80.69;102151.78;3985643;32;15021359;-75
2021/01/15 08:36:03;;;;;;;19.17;7.72;;;;;;;2.12;80.69;102151.78;4439542;32;20063;-74
2021/01/15 08:38:34;;;;;;;24.52;7.80;;;;;;;1.74;81.40;102149.31;4440248;32;20191;-75
2021/01/15 08:41:01;;;;;;;21.35;7.43;;;;;;;1.70;81.23;102151.16;4435634;32;20053;-75
2021/01/15 08:43:30;;;;;;;18.73;8.15;;;;;;;1.72;81.27;102152.44;4436729;32;20508;-74
2021/01/15 08:45:56;;;;;;;19.98;7.50;;;;;;;1.53;80.83;102149.41;4437579;32;20498;-74
2021/01/15 08:48:24;;;;;;;20.08;8.10;;;;;;;1.59;81.38;102164.66;4437090;32;20038;-74
2021/01/15 08:50:53;;;;;;;29.17;8.50;;;;;;;1.63;81.91;102165.59;4435355;32;20025;-75
2021/01/15 08:53:23;;;;;;;23.77;7.82;;;;;;;1.69;81.80;102166.19;4439938;32;20064;-74
2021/01/15 08:55:53;;;;;;;22.02;7.95;;;;;;;1.72;81.04;102174.62;4436438;32;20412;-75
2021/01/15 08:58:19;;;;;;;22.50;7.82;;;;;;;1.80;81.19;102182.06;4435690;32;20467;-76
2021/01/15 09:00:45;;;;;;;19.27;7.30;;;;;;;1.88;80.59;102205.31;4435064;32;20469;-75
2021/01/15 09:03:15;;;;;;;18.40;6.80;;;;;;;1.94;80.67;102203.94;4435903;32;20041;-76
2021/01/15 09:05:42;;;;;;;15.88;7.20;;;;;;;1.77;79.01;102199.41;4439536;32;20389;-75
2021/01/15 09:08:14;;;;;;;18.65;7.57;;;;;;;1.91;79.26;102199.87;4439476;32;20430;-76
2021/01/15 09:10:40;;;;;;;17.80;7.55;;;;;;;1.97;78.98;102197.69;4434845;32;20450;-76
2021/01/15 09:13:06;;;;;;;18.85;7.62;;;;;;;1.90;78.85;102192.72;4439547;32;20450;-76
2021/01/15 09:15:31;;;;;;;16.20;8.23;;;;;;;1.92;78.78;102190.41;4434706;32;20029;-76
2021/01/15 09:17:59;;;;;;;23.33;9.55;;;;;;;1.95;78.84;102188.91;4435292;32;20087;-75
2021/01/15 09:20:26;;;;;;;23.23;8.75;;;;;;;1.97;79.01;102187.38;4442171;32;20418;-75
2021/01/15 09:22:53;;;;;;;21.25;9.05;;;;;;;2.06;79.14;102184.53;4435140;32;20388;-76
2021/01/15 09:25:19;;;;;;;28.30;10.18;;;;;;;2.10;78.79;102177.12;4434683;32;20090;-76
2021/01/15 09:27:45;;;;;;;26.42;11.57;;;;;;;2.13;78.98;102173.63;4438172;32;20374;-75
2021/01/15 09:30:13;;;;;;;28.98;9.05;;;;;;;2.21;78.72;102175.47;4438990;32;20026;-77
2021/01/15 09:32:43;;;;;;;25.35;9.57;;;;;;;2.22;78.44;102177.12;4429905;32;20505;-76
2021/01/15 09:35:11;;;;;;;26.15;11.52;;;;;;;2.21;78.22;102177.47;4437554;32;20091;-75
2021/01/15 09:37:36;;;;;;;30.85;12.65;;;;;;;2.26;78.62;102171.66;4442049;32;20045;-75
2021/01/15 09:40:03;;;;;;;26.17;11.20;;;;;;;2.35;79.13;102177.91;4437857;32;20464;-75
2021/01/15 09:42:32;;;;;;;26.08;10.93;;;;;;;2.50;78.92;102185.53;4436363;32;20450;-76
2021/01/15 09:44:58;;;;;;;26.75;11.65;;;;;;;2.51;77.97;102187.97;4426955;32;20056;-75
2021/01/15 09:47:23;;;;;;;32.60;11.07;;;;;;;2.67;78.78;102182.50;4425665;32;20415;-75
2021/01/15 09:49:49;;;;;;;25.67;12.52;;;;;;;2.75;78.64;102189.91;4425687;32;20069;-76
2021/01/15 09:52:15;;;;;;;32.50;12.65;;;;;;;2.83;78.59;102184.22;4428783;32;20081;-76
2021/01/15 09:54:40;;;;;;;30.95;13.48;;;;;;;2.93;78.07;102189.28;4428023;32;20049;-75
2021/01/15 09:57:06;;;;;;;32.05;13.60;;;;;;;3.09;77.87;102194.91;4430525;32;20037;-75
2021/01/15 09:59:32;;;;;;;24.75;9.85;;;;;;;3.18;77.33;102199.16;4428798;32;20058;-76
2021/01/15 10:01:58;;;;;;;24.08;9.00;;;;;;;3.23;76.45;102204.50;4420176;32;20021;-75
2021/01/15 10:04:24;;;;;;;19.55;8.50;;;;;;;3.24;76.34;102208.06;4427091;32;20049;-77
2021/01/15 10:06:49;;;;;;;18.73;8.00;;;;;;;3.13;75.30;102210.53;4428751;32;20391;-76
2021/01/15 10:09:16;;;;;;;16.75;7.75;;;;;;;3.42;75.87;102220.50;4426023;32;20034;-75
2021/01/15 10:11:44;;;;;;;20.42;8.32;;;;;;;3.66;73.95;102220.41;4427839;32;20068;-75
2021/01/15 10:14:13;;;;;;;19.85;7.68;;;;;;;3.81;73.87;102231.56;4426613;32;20493;-76
2021/01/15 10:16:42;;;;;;;20.33;8.48;;;;;;;3.97;73.37;102237.97;4433711;32;20077;-75
2021/01/15 10:19:08;;;;;;;21.23;8.52;;;;;;;4.05;73.56;102227.81;4428395;32;20021;-75
2021/01/15 10:21:35;;;;;;;16.75;8.10;;;;;;;3.99;73.52;102235.62;4429232;32;20118;-75
2021/01/15 10:24:02;;;;;;;25.12;9.63;;;;;;;4.17;73.77;102243.66;4421477;32;20013;-76
2021/01/15 10:26:30;;;;;;;24.27;11.80;;;;;;;4.34;73.25;102238.53;4420351;32;20071;-76
2021/01/15 10:28:57;;;;;;;21.02;10.20;;;;;;;4.47;73.10;102242.81;4425609;32;20034;-75
2021/01/15 10:31:26;;;;;;;24.37;10.75;;;;;;;4.70;73.34;102238.22;4432716;32;20455;-76
2021/01/15 10:33:56;;;;;;;19.27;9.77;;;;;;;4.79;72.08;102233.22;4425377;32;20102;-76
2021/01/15 10:36:23;;;;;;;21.08;9.57;;;;;;;4.79;71.97;102238.81;4427876;32;20030;-76
2021/01/15 10:38:49;;;;;;;19.15;9.93;;;;;;;4.81;71.90;102230.88;4422966;32;20096;-76
2021/01/15 10:41:16;;;;;;;22.15;8.93;;;;;;;4.79;72.17;102226.84;4425746;32;20072;-75
2021/01/15 10:43:42;;;;;;;18.75;9.70;;;;;;;4.82;72.08;102223.34;4423931;32;20414;-76
2021/01/15 10:46:07;;;;;;;19.35;10.57;;;;;;;4.71;71.39;102214.72;4423038;32;20211;-76
2021/01/15 10:48:34;;;;;;;21.20;10.55;;;;;;;4.87;73.26;102206.31;4430688;32;20029;-75
2021/01/15 10:51:04;;;;;;;29.12;11.75;;;;;;;4.90;71.87;102219.53;4427505;32;20029;-77
2021/01/15 10:53:30;;;;;;;26.42;11.50;;;;;;;5.08;73.68;102215.97;4425236;32;20033;-75
2021/01/15 10:55:56;;;;;;;27.95;13.32;;;;;;;5.34;73.19;102216.13;4431894;32;20098;-77
2021/01/15 10:58:21;;;;;;;25.90;13.00;;;;;;;5.36;70.93;102215.75;4428157;32;20082;-75
2021/01/15 11:00:47;;;;;;;28.52;14.15;;;;;;;5.36;72.04;102212.97;4432639;32;20084;-76
2021/01/15 11:03:12;;;;;;;29.30;14.48;;;;;;;5.35;71.41;102217.75;4430248;32;20094;-75
2021/01/15 11:05:38;;;;;;;29.70;14.02;;;;;;;5.28;71.72;102225.16;4428664;32;20509;-76
2021/01/15 11:08:04;;;;;;;34.65;14.98;;;;;;;5.46;73.10;102220.75;4428853;32;20066;-76
2021/01/15 11:10:30;;;;;;;35.22;15.82;;;;;;;5.54;72.42;102226.13;4428141;32;20030;-76
2021/01/15 11:12:58;;;;;;;50.50;20.90;;;;;;;5.65;72.03;102215.16;4426284;32;20094;-76
2021/01/15 11:15:24;;;;;;;29.52;14.10;;;;;;;5.74;72.78;102212.94;4428101;32;20121;-75
2021/01/15 11:17:50;;;;;;;27.60;12.63;;;;;;;5.72;71.59;102216.09;4427930;32;20136;-74
2021/01/15 11:20:15;;;;;;;33.25;12.90;;;;;;;5.66;70.73;102214.78;4426221;32;20399;-77
2021/01/15 11:22:41;;;;;;;27.58;12.18;;;;;;;5.83;71.81;102203.16;4430102;32;20072;-75
2021/01/15 11:25:07;;;;;;;32.80;12.30;;;;;;;6.05;71.36;102213.53;4423748;32;20113;-76
2021/01/15 11:27:33;;;;;;;24.23;13.82;;;;;;;6.12;70.83;102201.69;4423532;32;20073;-75
2021/01/15 11:30:01;;;;;;;24.90;11.00;;;;;;;6.38;72.03;102210.09;4429448;32;20087;-76
2021/01/15 11:32:26;;;;;;;25.17;10.20;;;;;;;6.63;70.59;102205.69;4423985;32;20041;-76
2021/01/15 11:34:54;;;;;;;21.60;10.27;;;;;;;6.78;69.83;102206.75;4421498;32;20050;-76
2021/01/15 11:37:22;;;;;;;25.83;11.38;;;;;;;6.94;70.22;102211.00;4430426;32;20045;-76
2021/01/15 11:39:48;;;;;;;23.62;10.90;;;;;;;7.04;68.82;102199.13;4428253;32;20483;-75
2021/01/15 11:42:15;;;;;;;20.15;10.57;;;;;;;7.19;69.09;102197.31;4425431;32;20421;-76
2021/01/15 11:44:41;;;;;;;24.52;11.50;;;;;;;7.31;69.88;102192.28;4428261;32;20072;-76
2021/01/15 11:47:06;;;;;;;19.92;11.57;;;;;;;7.41;68.03;102193.59;4426947;32;20372;-76
2021/01/15 11:49:32;;;;;;;24.27;11.85;;;;;;;7.37;67.63;102193.53;4427440;32;20122;-76
2021/01/15 11:51:59;;;;;;;24.12;11.38;;;;;;;7.47;69.16;102189.25;4429942;32;20100;-76
2021/01/15 11:54:26;;;;;;;33.47;15.65;;;;;;;7.57;67.58;102188.56;4426188;32;20034;-77
2021/01/15 11:56:52;;;;;;;27.95;12.05;;;;;;;7.67;68.06;102191.50;4431111;32;20022;-76
2021/01/15 11:59:17;;;;;;;24.37;12.25;;;;;;;7.74;66.62;102185.94;4431781;32;20041;-75
2021/01/15 12:01:43;;;;;;;26.02;11.75;;;;;;;7.85;67.00;102180.47;4428657;32;20568;-77
2021/01/15 12:04:08;;;;;;;27.48;11.85;;;;;;;7.95;65.85;102183.38;4422578;32;20172;-76
2021/01/15 12:06:34;;;;;;;21.15;11.63;;;;;;;7.98;66.57;102184.62;4429034;32;20093;-77
2021/01/15 12:09:00;;;;;;;24.73;11.27;;;;;;;8.15;65.95;102178.34;4426463;32;20033;-77
2021/01/15 12:11:25;;;;;;;19.35;9.88;;;;;;;8.20;65.08;102175.19;4421493;32;20056;-76
2021/01/15 12:13:51;;;;;;;22.48;10.75;;;;;;;8.09;63.23;102185.50;4424782;32;20064;-75
2021/01/15 12:16:22;;;;;;;27.65;12.30;;;;;;;8.10;63.69;102171.09;4429244;32;20331;-77
2021/01/15 12:18:48;;;;;;;25.45;12.43;;;;;;;8.36;66.43;102180.56;4426262;32;20461;-75
2021/01/15 12:21:18;;;;;;;29.45;14.13;;;;;;;8.45;64.91;102172.59;4428312;32;20061;-75
2021/01/15 12:23:44;;;;;;;26.90;13.35;;;;;;;8.44;65.07;102171.00;4422996;32;20403;-76
2021/01/15 12:26:11;;;;;;;26.58;13.55;;;;;;;8.20;64.31;102166.78;4424628;32;20336;-77
2021/01/15 12:28:36;;;;;;;31.42;12.32;;;;;;;8.31;65.30;102159.28;4424375;32;20527;-76
2021/01/15 12:31:02;;;;;;;36.03;11.85;;;;;;;8.29;65.28;102152.44;4426744;32;20037;-77
2021/01/15 12:33:28;;;;;;;39.50;12.05;;;;;;;8.45;64.44;102165.00;4425525;32;20052;-76
2021/01/15 12:35:54;;;;;;;27.52;11.30;;;;;;;8.34;63.86;102154.91;4428740;32;20057;-76
2021/01/15 12:38:21;;;;;;;27.48;9.88;;;;;;;8.49;66.07;102156.59;4422516;32;20041;-77